sensor_id;sensor_type;location;lat;lon;timestamp;P1;durP1;ratioP1;P2;durP2;ratioP2
52786;SDS011;38661;53.152;5.846;2022-10-31T00:02:26;24.40;;;14.18;;
52786;SDS011;38661;53.152;5.846;2022-10-31T00:04:51;29.23;;;16.63;;
52786;SDS011;38661;53.152;5.846;2022-10-31T00:07:17;25.38;;;13.57;;
52786;SDS011;38661;53.152;5.846;2022-10-31T00:09:43;24.55;;;14.05;;
52786;SDS011;38661;53.152;5.846;2022-10-31T00:12:08;22.27;;;13.73;;
52786;SDS011;38661;53.152;5.846;2022-10-31T00:14:34;25.15;;;14.75;;
52786;SDS011;38661;53.152;5.846;2022-10-31T00:17:00;25.08;;;14.68;;
52786;SDS011;38661;53.152;5.846;2022-10-31T00:19:25;23.08;;;13.50;;
52786;SDS011;38661;53.152;5.846;2022-10-31T00:21:51;25.52;;;15.27;;
52786;SDS011;38661;53.152;5.846;2022-10-31T00:24:17;25.75;;;15.07;;
52786;SDS011;38661;53.152;5.846;2022-10-31T00:26:43;25.85;;;16.10;;
52786;SDS011;38661;53.152;5.846;2022-10-31T00:29:09;24.90;;;15.93;;
52786;SDS011;38661;53.152;5.846;2022-10-31T00:31:35;33.22;;;17.70;;
52786;SDS011;38661;53.152;5.846;2022-10-31T00:34:01;28.42;;;17.27;;
52786;SDS011;38661;53.152;5.846;2022-10-31T00:36:28;27.55;;;15.45;;
52786;SDS011;38661;53.152;5.846;2022-10-31T00:39:17;29.10;;;16.88;;
52786;SDS011;38661;53.152;5.846;2022-10-31T00:41:42;27.05;;;16.73;;
52786;SDS011;38661;53.152;5.846;2022-10-31T00:47:02;26.83;;;15.57;;
52786;SDS011;38661;53.152;5.846;2022-10-31T00:49:28;27.20;;;16.85;;
52786;SDS011;38661;53.152;5.846;2022-10-31T00:51:53;33.60;;;18.27;;
52786;SDS011;38661;53.152;5.846;2022-10-31T00:54:19;25.52;;;16.95;;
52786;SDS011;38661;53.152;5.846;2022-10-31T00:56:45;28.83;;;18.17;;
52786;SDS011;38661;53.152;5.846;2022-10-31T00:59:10;23.70;;;14.98;;
52786;SDS011;38661;53.152;5.846;2022-10-31T01:01:36;24.88;;;17.08;;
52786;SDS011;38661;53.152;5.846;2022-10-31T01:04:02;22.92;;;15.88;;
52786;SDS011;38661;53.152;5.846;2022-10-31T01:06:27;27.60;;;16.48;;
52786;SDS011;38661;53.152;5.846;2022-10-31T01:08:53;23.50;;;16.23;;
52786;SDS011;38661;53.152;5.846;2022-10-31T01:11:20;17.25;;;13.52;;
52786;SDS011;38661;53.152;5.846;2022-10-31T01:13:49;23.27;;;14.65;;
52786;SDS011;38661;53.152;5.846;2022-10-31T01:16:16;22.45;;;13.68;;
52786;SDS011;38661;53.152;5.846;2022-10-31T01:18:47;16.77;;;11.27;;
52786;SDS011;38661;53.152;5.846;2022-10-31T01:21:13;19.75;;;13.93;;
52786;SDS011;38661;53.152;5.846;2022-10-31T01:23:40;23.40;;;13.43;;
52786;SDS011;38661;53.152;5.846;2022-10-31T01:26:11;17.88;;;12.65;;
52786;SDS011;38661;53.152;5.846;2022-10-31T01:28:40;18.95;;;13.45;;
52786;SDS011;38661;53.152;5.846;2022-10-31T01:31:12;19.65;;;13.35;;
52786;SDS011;38661;53.152;5.846;2022-10-31T01:33:38;23.98;;;14.68;;
52786;SDS011;38661;53.152;5.846;2022-10-31T01:36:15;21.23;;;13.07;;
52786;SDS011;38661;53.152;5.846;2022-10-31T01:38:49;16.58;;;13.02;;
52786;SDS011;38661;53.152;5.846;2022-10-31T01:41:17;18.90;;;12.60;;
52786;SDS011;38661;53.152;5.846;2022-10-31T01:43:46;19.63;;;12.95;;
52786;SDS011;38661;53.152;5.846;2022-10-31T01:46:16;15.13;;;11.10;;
52786;SDS011;38661;53.152;5.846;2022-10-31T01:48:49;17.95;;;12.38;;
52786;SDS011;38661;53.152;5.846;2022-10-31T01:51:17;16.88;;;12.70;;
52786;SDS011;38661;53.152;5.846;2022-10-31T01:53:47;18.42;;;13.07;;
52786;SDS011;38661;53.152;5.846;2022-10-31T01:56:14;17.10;;;13.02;;
52786;SDS011;38661;53.152;5.846;2022-10-31T01:58:42;18.38;;;11.25;;
52786;SDS011;38661;53.152;5.846;2022-10-31T02:01:09;14.43;;;11.23;;
52786;SDS011;38661;53.152;5.846;2022-10-31T02:03:37;13.57;;;11.23;;
52786;SDS011;38661;53.152;5.846;2022-10-31T02:06:02;13.82;;;11.93;;
52786;SDS011;38661;53.152;5.846;2022-10-31T02:08:35;14.77;;;10.77;;
52786;SDS011;38661;53.152;5.846;2022-10-31T02:11:02;21.17;;;10.70;;
52786;SDS011;38661;53.152;5.846;2022-10-31T02:13:28;16.05;;;11.50;;
52786;SDS011;38661;53.152;5.846;2022-10-31T02:15:56;12.65;;;9.57;;
52786;SDS011;38661;53.152;5.846;2022-10-31T02:18:24;14.48;;;11.25;;
52786;SDS011;38661;53.152;5.846;2022-10-31T02:23:37;17.52;;;13.40;;
52786;SDS011;38661;53.152;5.846;2022-10-31T02:26:45;19.58;;;12.65;;
52786;SDS011;38661;53.152;5.846;2022-10-31T02:38:09;17.67;;;12.55;;
52786;SDS011;38661;53.152;5.846;2022-10-31T02:40:36;15.48;;;12.15;;
52786;SDS011;38661;53.152;5.846;2022-10-31T02:46:24;20.88;;;13.15;;
52786;SDS011;38661;53.152;5.846;2022-10-31T02:49:22;14.25;;;10.57;;
52786;SDS011;38661;53.152;5.846;2022-10-31T02:52:00;21.95;;;14.40;;
52786;SDS011;38661;53.152;5.846;2022-10-31T02:54:27;19.33;;;12.93;;
52786;SDS011;38661;53.152;5.846;2022-10-31T02:56:58;15.88;;;12.63;;
52786;SDS011;38661;53.152;5.846;2022-10-31T02:59:28;18.23;;;13.25;;
52786;SDS011;38661;53.152;5.846;2022-10-31T03:05:37;16.98;;;12.68;;
52786;SDS011;38661;53.152;5.846;2022-10-31T03:08:22;20.73;;;12.70;;
52786;SDS011;38661;53.152;5.846;2022-10-31T03:10:56;17.92;;;11.63;;
52786;SDS011;38661;53.152;5.846;2022-10-31T03:21:33;18.10;;;11.98;;
52786;SDS011;38661;53.152;5.846;2022-10-31T03:24:11;16.02;;;11.27;;
52786;SDS011;38661;53.152;5.846;2022-10-31T03:26:41;17.23;;;13.32;;
52786;SDS011;38661;53.152;5.846;2022-10-31T03:29:13;15.90;;;12.55;;
52786;SDS011;38661;53.152;5.846;2022-10-31T03:31:49;22.70;;;15.07;;
52786;SDS011;38661;53.152;5.846;2022-10-31T03:34:27;19.85;;;14.88;;
52786;SDS011;38661;53.152;5.846;2022-10-31T03:36:56;26.45;;;18.00;;
52786;SDS011;38661;53.152;5.846;2022-10-31T03:39:25;20.42;;;15.07;;
52786;SDS011;38661;53.152;5.846;2022-10-31T03:41:56;18.17;;;13.20;;
52786;SDS011;38661;53.152;5.846;2022-10-31T03:44:29;28.10;;;17.33;;
52786;SDS011;38661;53.152;5.846;2022-10-31T03:46:57;25.27;;;16.00;;
52786;SDS011;38661;53.152;5.846;2022-10-31T03:49:23;23.75;;;16.98;;
52786;SDS011;38661;53.152;5.846;2022-10-31T04:00:10;21.45;;;15.60;;
52786;SDS011;38661;53.152;5.846;2022-10-31T04:02:38;24.38;;;16.70;;
52786;SDS011;38661;53.152;5.846;2022-10-31T04:05:07;23.75;;;16.02;;
52786;SDS011;38661;53.152;5.846;2022-10-31T04:07:36;21.08;;;16.65;;
52786;SDS011;38661;53.152;5.846;2022-10-31T04:10:07;23.02;;;16.70;;
52786;SDS011;38661;53.152;5.846;2022-10-31T04:12:35;21.95;;;15.93;;
52786;SDS011;38661;53.152;5.846;2022-10-31T04:15:03;23.38;;;17.35;;
52786;SDS011;38661;53.152;5.846;2022-10-31T04:17:31;28.05;;;18.77;;
52786;SDS011;38661;53.152;5.846;2022-10-31T04:20:01;25.85;;;17.98;;
52786;SDS011;38661;53.152;5.846;2022-10-31T04:22:28;22.05;;;15.65;;
52786;SDS011;38661;53.152;5.846;2022-10-31T04:24:54;27.05;;;17.25;;
52786;SDS011;38661;53.152;5.846;2022-10-31T04:27:19;25.63;;;16.75;;
52786;SDS011;38661;53.152;5.846;2022-10-31T04:29:45;26.38;;;16.67;;
52786;SDS011;38661;53.152;5.846;2022-10-31T04:32:11;25.70;;;15.90;;
52786;SDS011;38661;53.152;5.846;2022-10-31T04:34:36;25.90;;;15.65;;
52786;SDS011;38661;53.152;5.846;2022-10-31T04:37:02;23.63;;;16.13;;
52786;SDS011;38661;53.152;5.846;2022-10-31T04:39:28;21.33;;;15.50;;
52786;SDS011;38661;53.152;5.846;2022-10-31T04:41:53;26.92;;;17.15;;
52786;SDS011;38661;53.152;5.846;2022-10-31T04:44:19;21.88;;;16.13;;
52786;SDS011;38661;53.152;5.846;2022-10-31T04:46:45;23.48;;;17.50;;
52786;SDS011;38661;53.152;5.846;2022-10-31T04:49:11;25.58;;;16.90;;
52786;SDS011;38661;53.152;5.846;2022-10-31T04:51:37;24.73;;;17.40;;
52786;SDS011;38661;53.152;5.846;2022-10-31T04:54:02;23.60;;;16.83;;
52786;SDS011;38661;53.152;5.846;2022-10-31T04:56:28;21.15;;;16.50;;
52786;SDS011;38661;53.152;5.846;2022-10-31T04:58:54;28.52;;;18.77;;
52786;SDS011;38661;53.152;5.846;2022-10-31T05:01:20;25.17;;;18.38;;
52786;SDS011;38661;53.152;5.846;2022-10-31T05:03:45;20.85;;;15.40;;
52786;SDS011;38661;53.152;5.846;2022-10-31T05:06:11;21.55;;;15.80;;
52786;SDS011;38661;53.152;5.846;2022-10-31T05:08:37;18.10;;;15.27;;
52786;SDS011;38661;53.152;5.846;2022-10-31T05:11:03;28.60;;;19.40;;
52786;SDS011;38661;53.152;5.846;2022-10-31T05:13:29;27.45;;;20.20;;
52786;SDS011;38661;53.152;5.846;2022-10-31T05:15:55;26.90;;;19.15;;
52786;SDS011;38661;53.152;5.846;2022-10-31T05:18:21;26.52;;;18.90;;
52786;SDS011;38661;53.152;5.846;2022-10-31T05:20:47;31.20;;;20.50;;
52786;SDS011;38661;53.152;5.846;2022-10-31T05:23:13;29.83;;;20.25;;
52786;SDS011;38661;53.152;5.846;2022-10-31T05:25:39;30.90;;;20.58;;
52786;SDS011;38661;53.152;5.846;2022-10-31T05:28:05;26.95;;;18.77;;
52786;SDS011;38661;53.152;5.846;2022-10-31T05:30:31;30.05;;;22.13;;
52786;SDS011;38661;53.152;5.846;2022-10-31T05:32:57;21.33;;;17.70;;
52786;SDS011;38661;53.152;5.846;2022-10-31T05:35:25;28.10;;;18.70;;
52786;SDS011;38661;53.152;5.846;2022-10-31T05:37:52;25.40;;;18.45;;
52786;SDS011;38661;53.152;5.846;2022-10-31T05:40:18;25.33;;;16.77;;
52786;SDS011;38661;53.152;5.846;2022-10-31T05:42:45;31.67;;;21.63;;
52786;SDS011;38661;53.152;5.846;2022-10-31T05:45:12;29.48;;;20.83;;
52786;SDS011;38661;53.152;5.846;2022-10-31T05:47:40;30.52;;;21.50;;
52786;SDS011;38661;53.152;5.846;2022-10-31T05:50:06;27.85;;;21.63;;
52786;SDS011;38661;53.152;5.846;2022-10-31T05:52:32;36.88;;;27.63;;
52786;SDS011;38661;53.152;5.846;2022-10-31T05:54:58;40.88;;;33.00;;
52786;SDS011;38661;53.152;5.846;2022-10-31T05:57:24;33.65;;;24.30;;
52786;SDS011;38661;53.152;5.846;2022-10-31T05:59:50;26.88;;;21.95;;
52786;SDS011;38661;53.152;5.846;2022-10-31T06:02:19;27.83;;;22.02;;
52786;SDS011;38661;53.152;5.846;2022-10-31T06:04:45;29.17;;;21.08;;
52786;SDS011;38661;53.152;5.846;2022-10-31T06:07:11;26.13;;;19.80;;
52786;SDS011;38661;53.152;5.846;2022-10-31T06:09:36;23.35;;;17.33;;
52786;SDS011;38661;53.152;5.846;2022-10-31T06:12:02;21.95;;;17.58;;
52786;SDS011;38661;53.152;5.846;2022-10-31T06:14:28;26.58;;;18.25;;
52786;SDS011;38661;53.152;5.846;2022-10-31T06:16:54;23.92;;;17.75;;
52786;SDS011;38661;53.152;5.846;2022-10-31T06:19:20;22.42;;;17.27;;
52786;SDS011;38661;53.152;5.846;2022-10-31T06:21:46;27.08;;;19.95;;
52786;SDS011;38661;53.152;5.846;2022-10-31T06:24:12;26.95;;;21.70;;
52786;SDS011;38661;53.152;5.846;2022-10-31T06:26:38;32.67;;;21.73;;
52786;SDS011;38661;53.152;5.846;2022-10-31T06:29:04;27.15;;;19.83;;
52786;SDS011;38661;53.152;5.846;2022-10-31T06:31:30;22.73;;;17.67;;
52786;SDS011;38661;53.152;5.846;2022-10-31T06:33:56;25.85;;;19.48;;
52786;SDS011;38661;53.152;5.846;2022-10-31T06:36:22;25.00;;;18.02;;
52786;SDS011;38661;53.152;5.846;2022-10-31T06:38:47;27.08;;;21.40;;
52786;SDS011;38661;53.152;5.846;2022-10-31T06:41:13;26.83;;;21.92;;
52786;SDS011;38661;53.152;5.846;2022-10-31T06:43:39;19.35;;;15.57;;
52786;SDS011;38661;53.152;5.846;2022-10-31T06:46:05;36.88;;;23.55;;
52786;SDS011;38661;53.152;5.846;2022-10-31T06:48:31;27.05;;;20.40;;
52786;SDS011;38661;53.152;5.846;2022-10-31T06:51:00;32.35;;;23.10;;
52786;SDS011;38661;53.152;5.846;2022-10-31T06:53:26;20.85;;;16.15;;
52786;SDS011;38661;53.152;5.846;2022-10-31T06:55:57;32.30;;;22.35;;
52786;SDS011;38661;53.152;5.846;2022-10-31T06:58:24;26.08;;;20.83;;
52786;SDS011;38661;53.152;5.846;2022-10-31T07:00:50;25.63;;;19.52;;
52786;SDS011;38661;53.152;5.846;2022-10-31T07:03:16;31.33;;;22.80;;
52786;SDS011;38661;53.152;5.846;2022-10-31T07:05:41;28.58;;;21.08;;
52786;SDS011;38661;53.152;5.846;2022-10-31T07:08:09;26.15;;;20.67;;
52786;SDS011;38661;53.152;5.846;2022-10-31T07:10:36;28.38;;;21.65;;
52786;SDS011;38661;53.152;5.846;2022-10-31T07:13:04;30.25;;;22.10;;
52786;SDS011;38661;53.152;5.846;2022-10-31T07:15:36;24.65;;;20.67;;
52786;SDS011;38661;53.152;5.846;2022-10-31T07:18:04;26.92;;;20.98;;
52786;SDS011;38661;53.152;5.846;2022-10-31T07:20:31;24.50;;;17.65;;
52786;SDS011;38661;53.152;5.846;2022-10-31T07:22:57;26.00;;;20.38;;
52786;SDS011;38661;53.152;5.846;2022-10-31T07:25:23;28.35;;;21.20;;
52786;SDS011;38661;53.152;5.846;2022-10-31T07:27:49;21.63;;;17.77;;
52786;SDS011;38661;53.152;5.846;2022-10-31T07:30:15;27.70;;;21.25;;
52786;SDS011;38661;53.152;5.846;2022-10-31T07:32:49;31.25;;;22.52;;
52786;SDS011;38661;53.152;5.846;2022-10-31T07:35:20;30.50;;;23.48;;
52786;SDS011;38661;53.152;5.846;2022-10-31T07:37:47;32.10;;;24.63;;
52786;SDS011;38661;53.152;5.846;2022-10-31T07:40:13;29.85;;;21.98;;
52786;SDS011;38661;53.152;5.846;2022-10-31T07:42:40;33.50;;;22.38;;
52786;SDS011;38661;53.152;5.846;2022-10-31T07:45:08;32.03;;;23.27;;
52786;SDS011;38661;53.152;5.846;2022-10-31T07:47:42;28.65;;;21.77;;
52786;SDS011;38661;53.152;5.846;2022-10-31T07:50:16;29.73;;;22.33;;
52786;SDS011;38661;53.152;5.846;2022-10-31T07:52:43;33.25;;;22.63;;
52786;SDS011;38661;53.152;5.846;2022-10-31T07:55:09;30.20;;;21.63;;
52786;SDS011;38661;53.152;5.846;2022-10-31T07:57:35;31.33;;;22.15;;
52786;SDS011;38661;53.152;5.846;2022-10-31T08:00:05;26.48;;;20.58;;
52786;SDS011;38661;53.152;5.846;2022-10-31T08:02:32;29.55;;;22.17;;
52786;SDS011;38661;53.152;5.846;2022-10-31T08:04:58;29.15;;;23.40;;
52786;SDS011;38661;53.152;5.846;2022-10-31T08:07:25;31.83;;;23.08;;
52786;SDS011;38661;53.152;5.846;2022-10-31T08:09:51;26.95;;;18.60;;
52786;SDS011;38661;53.152;5.846;2022-10-31T08:12:17;27.13;;;20.58;;
52786;SDS011;38661;53.152;5.846;2022-10-31T08:14:43;28.48;;;20.52;;
52786;SDS011;38661;53.152;5.846;2022-10-31T08:17:09;20.85;;;17.10;;
52786;SDS011;38661;53.152;5.846;2022-10-31T08:19:36;29.33;;;23.75;;
52786;SDS011;38661;53.152;5.846;2022-10-31T08:22:01;29.73;;;23.60;;
52786;SDS011;38661;53.152;5.846;2022-10-31T08:24:27;29.52;;;23.23;;
52786;SDS011;38661;53.152;5.846;2022-10-31T08:26:53;33.42;;;24.23;;
52786;SDS011;38661;53.152;5.846;2022-10-31T08:29:18;34.15;;;24.23;;
52786;SDS011;38661;53.152;5.846;2022-10-31T08:31:44;31.23;;;23.20;;
52786;SDS011;38661;53.152;5.846;2022-10-31T08:34:11;37.33;;;26.30;;
52786;SDS011;38661;53.152;5.846;2022-10-31T08:36:37;32.45;;;24.65;;
52786;SDS011;38661;53.152;5.846;2022-10-31T08:39:02;34.20;;;25.67;;
52786;SDS011;38661;53.152;5.846;2022-10-31T08:41:28;39.58;;;32.00;;
52786;SDS011;38661;53.152;5.846;2022-10-31T08:43:54;38.20;;;28.63;;
52786;SDS011;38661;53.152;5.846;2022-10-31T08:46:20;34.47;;;26.90;;
52786;SDS011;38661;53.152;5.846;2022-10-31T08:48:49;27.92;;;22.05;;
52786;SDS011;38661;53.152;5.846;2022-10-31T08:51:15;34.20;;;27.63;;
52786;SDS011;38661;53.152;5.846;2022-10-31T08:53:41;33.72;;;27.85;;
52786;SDS011;38661;53.152;5.846;2022-10-31T08:56:07;41.80;;;32.08;;
52786;SDS011;38661;53.152;5.846;2022-10-31T08:58:32;34.60;;;29.00;;
52786;SDS011;38661;53.152;5.846;2022-10-31T09:00:59;33.05;;;26.13;;
52786;SDS011;38661;53.152;5.846;2022-10-31T09:03:29;32.92;;;24.80;;
52786;SDS011;38661;53.152;5.846;2022-10-31T09:06:02;33.20;;;24.13;;
52786;SDS011;38661;53.152;5.846;2022-10-31T09:08:30;30.30;;;21.90;;
52786;SDS011;38661;53.152;5.846;2022-10-31T09:10:57;25.45;;;19.77;;
52786;SDS011;38661;53.152;5.846;2022-10-31T09:13:23;27.40;;;22.60;;
52786;SDS011;38661;53.152;5.846;2022-10-31T09:15:50;27.05;;;22.20;;
52786;SDS011;38661;53.152;5.846;2022-10-31T09:18:17;27.73;;;20.55;;
52786;SDS011;38661;53.152;5.846;2022-10-31T09:20:45;24.17;;;18.80;;
52786;SDS011;38661;53.152;5.846;2022-10-31T09:23:16;28.90;;;20.35;;
52786;SDS011;38661;53.152;5.846;2022-10-31T09:25:47;24.27;;;19.42;;
52786;SDS011;38661;53.152;5.846;2022-10-31T09:28:15;25.35;;;20.88;;
52786;SDS011;38661;53.152;5.846;2022-10-31T09:30:45;21.65;;;18.35;;
52786;SDS011;38661;53.152;5.846;2022-10-31T09:33:12;25.88;;;20.25;;
52786;SDS011;38661;53.152;5.846;2022-10-31T09:35:38;28.35;;;21.33;;
52786;SDS011;38661;53.152;5.846;2022-10-31T09:38:12;28.00;;;21.48;;
52786;SDS011;38661;53.152;5.846;2022-10-31T09:41:27;24.52;;;19.23;;
52786;SDS011;38661;53.152;5.846;2022-10-31T09:51:42;27.45;;;19.17;;
52786;SDS011;38661;53.152;5.846;2022-10-31T09:54:14;25.85;;;20.20;;
52786;SDS011;38661;53.152;5.846;2022-10-31T09:57:01;27.35;;;18.90;;
52786;SDS011;38661;53.152;5.846;2022-10-31T09:59:35;21.75;;;17.50;;
52786;SDS011;38661;53.152;5.846;2022-10-31T10:05:18;32.45;;;22.67;;
52786;SDS011;38661;53.152;5.846;2022-10-31T10:09:59;23.70;;;17.70;;
52786;SDS011;38661;53.152;5.846;2022-10-31T10:15:25;23.83;;;19.42;;
52786;SDS011;38661;53.152;5.846;2022-10-31T10:21:20;27.15;;;20.00;;
52786;SDS011;38661;53.152;5.846;2022-10-31T10:26:38;23.27;;;18.13;;
52786;SDS011;38661;53.152;5.846;2022-10-31T10:31:43;17.95;;;15.45;;
52786;SDS011;38661;53.152;5.846;2022-10-31T10:34:27;21.05;;;15.95;;
52786;SDS011;38661;53.152;5.846;2022-10-31T10:37:00;24.25;;;16.55;;
52786;SDS011;38661;53.152;5.846;2022-10-31T10:39:40;20.55;;;15.27;;
52786;SDS011;38661;53.152;5.846;2022-10-31T10:42:14;18.58;;;14.68;;
52786;SDS011;38661;53.152;5.846;2022-10-31T10:45:00;18.23;;;14.65;;
52786;SDS011;38661;53.152;5.846;2022-10-31T10:48:00;14.57;;;11.98;;
52786;SDS011;38661;53.152;5.846;2022-10-31T10:50:34;17.17;;;13.00;;
52786;SDS011;38661;53.152;5.846;2022-10-31T10:53:16;19.30;;;13.85;;
52786;SDS011;38661;53.152;5.846;2022-10-31T10:58:41;14.52;;;10.45;;
52786;SDS011;38661;53.152;5.846;2022-10-31T11:01:14;13.88;;;10.63;;
52786;SDS011;38661;53.152;5.846;2022-10-31T11:03:40;15.48;;;12.65;;
52786;SDS011;38661;53.152;5.846;2022-10-31T11:06:17;13.77;;;11.68;;
52786;SDS011;38661;53.152;5.846;2022-10-31T11:08:47;15.73;;;11.63;;
52786;SDS011;38661;53.152;5.846;2022-10-31T11:13:42;15.77;;;12.60;;
52786;SDS011;38661;53.152;5.846;2022-10-31T11:16:15;16.60;;;12.77;;
52786;SDS011;38661;53.152;5.846;2022-10-31T11:21:38;16.55;;;13.13;;
52786;SDS011;38661;53.152;5.846;2022-10-31T11:24:25;13.85;;;11.57;;
52786;SDS011;38661;53.152;5.846;2022-10-31T11:27:03;17.08;;;12.15;;
52786;SDS011;38661;53.152;5.846;2022-10-31T11:30:03;15.65;;;13.10;;
52786;SDS011;38661;53.152;5.846;2022-10-31T11:32:31;17.20;;;12.07;;
52786;SDS011;38661;53.152;5.846;2022-10-31T11:34:58;15.70;;;11.75;;
52786;SDS011;38661;53.152;5.846;2022-10-31T11:37:27;18.20;;;12.70;;
52786;SDS011;38661;53.152;5.846;2022-10-31T11:39:55;15.38;;;11.57;;
52786;SDS011;38661;53.152;5.846;2022-10-31T11:42:27;14.90;;;12.00;;
52786;SDS011;38661;53.152;5.846;2022-10-31T11:45:00;15.02;;;11.75;;
52786;SDS011;38661;53.152;5.846;2022-10-31T11:47:32;17.10;;;13.38;;
52786;SDS011;38661;53.152;5.846;2022-10-31T11:50:00;17.85;;;13.57;;
52786;SDS011;38661;53.152;5.846;2022-10-31T11:52:34;18.20;;;14.18;;
52786;SDS011;38661;53.152;5.846;2022-10-31T11:57:42;20.50;;;15.18;;
52786;SDS011;38661;53.152;5.846;2022-10-31T12:03:10;21.27;;;14.85;;
52786;SDS011;38661;53.152;5.846;2022-10-31T12:05:39;21.90;;;16.92;;
52786;SDS011;38661;53.152;5.846;2022-10-31T12:08:07;21.67;;;16.35;;
52786;SDS011;38661;53.152;5.846;2022-10-31T12:10:39;20.90;;;16.58;;
52786;SDS011;38661;53.152;5.846;2022-10-31T12:16:09;22.80;;;18.20;;
52786;SDS011;38661;53.152;5.846;2022-10-31T12:24:16;21.17;;;15.05;;
52786;SDS011;38661;53.152;5.846;2022-10-31T12:32:13;20.90;;;14.38;;
52786;SDS011;38661;53.152;5.846;2022-10-31T12:46:00;16.02;;;12.13;;
52786;SDS011;38661;53.152;5.846;2022-10-31T12:54:19;11.60;;;8.35;;
52786;SDS011;38661;53.152;5.846;2022-10-31T13:00:04;15.10;;;8.90;;
52786;SDS011;38661;53.152;5.846;2022-10-31T13:08:09;10.68;;;7.40;;
52786;SDS011;38661;53.152;5.846;2022-10-31T13:10:47;11.70;;;7.43;;
52786;SDS011;38661;53.152;5.846;2022-10-31T13:13:35;9.27;;;6.38;;
52786;SDS011;38661;53.152;5.846;2022-10-31T13:16:26;10.82;;;6.20;;
52786;SDS011;38661;53.152;5.846;2022-10-31T13:19:00;9.10;;;6.07;;
52786;SDS011;38661;53.152;5.846;2022-10-31T13:24:27;13.27;;;6.78;;
52786;SDS011;38661;53.152;5.846;2022-10-31T13:27:03;9.85;;;5.60;;
52786;SDS011;38661;53.152;5.846;2022-10-31T13:29:39;8.65;;;5.85;;
52786;SDS011;38661;53.152;5.846;2022-10-31T13:32:11;11.60;;;6.28;;
52786;SDS011;38661;53.152;5.846;2022-10-31T13:34:40;10.32;;;5.28;;
52786;SDS011;38661;53.152;5.846;2022-10-31T13:40:38;7.70;;;4.90;;
52786;SDS011;38661;53.152;5.846;2022-10-31T13:43:43;7.30;;;4.10;;
52786;SDS011;38661;53.152;5.846;2022-10-31T13:46:25;7.63;;;4.32;;
52786;SDS011;38661;53.152;5.846;2022-10-31T13:49:03;10.52;;;5.05;;
52786;SDS011;38661;53.152;5.846;2022-10-31T13:51:45;11.10;;;4.90;;
52786;SDS011;38661;53.152;5.846;2022-10-31T13:54:23;9.57;;;5.40;;
52786;SDS011;38661;53.152;5.846;2022-10-31T13:56:57;8.18;;;4.88;;
52786;SDS011;38661;53.152;5.846;2022-10-31T13:59:24;9.38;;;5.35;;
52786;SDS011;38661;53.152;5.846;2022-10-31T14:01:56;7.00;;;4.10;;
52786;SDS011;38661;53.152;5.846;2022-10-31T14:04:28;10.15;;;5.05;;
52786;SDS011;38661;53.152;5.846;2022-10-31T14:07:12;8.93;;;4.75;;
52786;SDS011;38661;53.152;5.846;2022-10-31T14:09:52;9.20;;;4.85;;
52786;SDS011;38661;53.152;5.846;2022-10-31T14:12:44;9.27;;;5.75;;
52786;SDS011;38661;53.152;5.846;2022-10-31T14:18:01;12.70;;;5.30;;
52786;SDS011;38661;53.152;5.846;2022-10-31T14:20:39;12.15;;;6.25;;
52786;SDS011;38661;53.152;5.846;2022-10-31T14:26:20;11.77;;;5.70;;
52786;SDS011;38661;53.152;5.846;2022-10-31T14:28:46;10.93;;;6.35;;
52786;SDS011;38661;53.152;5.846;2022-10-31T14:37:01;8.70;;;5.55;;
52786;SDS011;38661;53.152;5.846;2022-10-31T14:51:19;9.02;;;5.10;;
52786;SDS011;38661;53.152;5.846;2022-10-31T14:53:51;10.35;;;5.18;;
52786;SDS011;38661;53.152;5.846;2022-10-31T14:56:29;10.98;;;5.28;;
52786;SDS011;38661;53.152;5.846;2022-10-31T14:58:57;7.40;;;4.15;;
52786;SDS011;38661;53.152;5.846;2022-10-31T15:01:30;6.03;;;4.72;;
52786;SDS011;38661;53.152;5.846;2022-10-31T15:06:50;9.38;;;5.00;;
52786;SDS011;38661;53.152;5.846;2022-10-31T15:09:28;8.48;;;4.22;;
52786;SDS011;38661;53.152;5.846;2022-10-31T15:12:00;12.40;;;4.43;;
52786;SDS011;38661;53.152;5.846;2022-10-31T15:14:46;10.48;;;4.28;;
52786;SDS011;38661;53.152;5.846;2022-10-31T15:17:11;10.02;;;4.43;;
52786;SDS011;38661;53.152;5.846;2022-10-31T15:19:38;8.48;;;3.88;;
52786;SDS011;38661;53.152;5.846;2022-10-31T15:22:04;8.73;;;3.90;;
52786;SDS011;38661;53.152;5.846;2022-10-31T15:24:32;9.45;;;4.15;;
52786;SDS011;38661;53.152;5.846;2022-10-31T15:27:00;12.18;;;4.60;;
52786;SDS011;38661;53.152;5.846;2022-10-31T15:29:26;7.25;;;3.80;;
52786;SDS011;38661;53.152;5.846;2022-10-31T15:32:01;8.43;;;3.75;;
52786;SDS011;38661;53.152;5.846;2022-10-31T15:34:54;8.48;;;3.90;;
52786;SDS011;38661;53.152;5.846;2022-10-31T15:37:21;7.85;;;3.83;;
52786;SDS011;38661;53.152;5.846;2022-10-31T15:39:50;12.77;;;4.45;;
52786;SDS011;38661;53.152;5.846;2022-10-31T15:42:27;8.80;;;4.38;;
52786;SDS011;38661;53.152;5.846;2022-10-31T15:47:31;10.67;;;5.10;;
52786;SDS011;38661;53.152;5.846;2022-10-31T15:49:58;16.30;;;9.75;;
52786;SDS011;38661;53.152;5.846;2022-10-31T15:52:32;15.65;;;10.48;;
52786;SDS011;38661;53.152;5.846;2022-10-31T15:57:46;7.90;;;3.50;;
52786;SDS011;38661;53.152;5.846;2022-10-31T16:00:27;10.00;;;4.22;;
52786;SDS011;38661;53.152;5.846;2022-10-31T16:03:06;10.50;;;4.03;;
52786;SDS011;38661;53.152;5.846;2022-10-31T16:05:52;12.73;;;4.80;;
52786;SDS011;38661;53.152;5.846;2022-10-31T16:10:58;12.73;;;7.05;;
52786;SDS011;38661;53.152;5.846;2022-10-31T16:13:28;13.63;;;4.28;;
52786;SDS011;38661;53.152;5.846;2022-10-31T16:15:56;9.32;;;3.70;;
52786;SDS011;38661;53.152;5.846;2022-10-31T16:18:29;8.52;;;4.28;;
52786;SDS011;38661;53.152;5.846;2022-10-31T16:21:01;8.82;;;3.65;;
52786;SDS011;38661;53.152;5.846;2022-10-31T16:23:30;9.38;;;4.32;;
52786;SDS011;38661;53.152;5.846;2022-10-31T16:25:56;11.45;;;4.10;;
52786;SDS011;38661;53.152;5.846;2022-10-31T16:28:23;7.97;;;4.38;;
52786;SDS011;38661;53.152;5.846;2022-10-31T16:30:51;10.60;;;4.55;;
52786;SDS011;38661;53.152;5.846;2022-10-31T16:35:58;15.70;;;4.65;;
52786;SDS011;38661;53.152;5.846;2022-10-31T16:38:26;14.63;;;6.13;;
52786;SDS011;38661;53.152;5.846;2022-10-31T16:40:51;11.55;;;5.50;;
52786;SDS011;38661;53.152;5.846;2022-10-31T16:43:18;11.98;;;6.60;;
52786;SDS011;38661;53.152;5.846;2022-10-31T16:45:46;10.60;;;5.28;;
52786;SDS011;38661;53.152;5.846;2022-10-31T16:48:15;9.98;;;5.57;;
52786;SDS011;38661;53.152;5.846;2022-10-31T16:50:47;15.65;;;6.85;;
52786;SDS011;38661;53.152;5.846;2022-10-31T16:53:14;13.18;;;6.78;;
52786;SDS011;38661;53.152;5.846;2022-10-31T16:55:51;13.32;;;7.72;;
52786;SDS011;38661;53.152;5.846;2022-10-31T16:58:26;17.00;;;8.27;;
52786;SDS011;38661;53.152;5.846;2022-10-31T17:00:56;15.65;;;7.72;;
52786;SDS011;38661;53.152;5.846;2022-10-31T17:03:23;14.50;;;8.10;;
52786;SDS011;38661;53.152;5.846;2022-10-31T17:05:48;12.70;;;8.00;;
52786;SDS011;38661;53.152;5.846;2022-10-31T17:08:14;13.00;;;8.23;;
52786;SDS011;38661;53.152;5.846;2022-10-31T17:10:40;12.45;;;7.72;;
52786;SDS011;38661;53.152;5.846;2022-10-31T17:13:10;14.05;;;8.25;;
52786;SDS011;38661;53.152;5.846;2022-10-31T17:15:44;14.38;;;8.43;;
52786;SDS011;38661;53.152;5.846;2022-10-31T17:18:13;11.65;;;7.75;;
52786;SDS011;38661;53.152;5.846;2022-10-31T17:20:39;15.93;;;8.82;;
52786;SDS011;38661;53.152;5.846;2022-10-31T17:23:06;13.95;;;8.48;;